sensor_id;sensor_type;location;lat;lon;timestamp;P1;durP1;ratioP1;P2;durP2;ratioP2
59167;SDS011;70412;55.048;73.268;2023-05-29T00:00:58;15.55;;;7.10;;
59167;SDS011;70412;55.048;73.268;2023-05-29T00:04:01;18.50;;;7.15;;
59167;SDS011;70412;55.048;73.268;2023-05-29T00:07:04;25.77;;;7.47;;
59167;SDS011;70412;55.048;73.268;2023-05-29T00:10:07;13.57;;;6.40;;
59167;SDS011;70412;55.048;73.268;2023-05-29T00:13:11;19.58;;;6.88;;
59167;SDS011;70412;55.048;73.268;2023-05-29T00:16:13;11.40;;;5.43;;
59167;SDS011;70412;55.048;73.268;2023-05-29T00:19:16;16.05;;;6.07;;
59167;SDS011;70412;55.048;73.268;2023-05-29T00:22:18;13.38;;;5.15;;
59167;SDS011;70412;55.048;73.268;2023-05-29T00:25:21;13.50;;;5.60;;
59167;SDS011;70412;55.048;73.268;2023-05-29T00:28:23;18.35;;;5.47;;
59167;SDS011;70412;55.048;73.268;2023-05-29T00:31:26;17.85;;;6.55;;
59167;SDS011;70412;55.048;73.268;2023-05-29T00:34:29;24.63;;;5.38;;
59167;SDS011;70412;55.048;73.268;2023-05-29T00:37:32;13.63;;;5.70;;
59167;SDS011;70412;55.048;73.268;2023-05-29T00:40:34;11.63;;;5.75;;
59167;SDS011;70412;55.048;73.268;2023-05-29T00:43:36;15.10;;;5.70;;
59167;SDS011;70412;55.048;73.268;2023-05-29T00:46:38;17.05;;;6.88;;
59167;SDS011;70412;55.048;73.268;2023-05-29T00:49:41;17.38;;;5.63;;
59167;SDS011;70412;55.048;73.268;2023-05-29T00:52:44;15.98;;;6.03;;
59167;SDS011;70412;55.048;73.268;2023-05-29T00:55:47;12.95;;;5.18;;
59167;SDS011;70412;55.048;73.268;2023-05-29T00:58:50;13.40;;;5.30;;
59167;SDS011;70412;55.048;73.268;2023-05-29T01:01:54;11.65;;;5.30;;
59167;SDS011;70412;55.048;73.268;2023-05-29T01:04:57;19.75;;;5.40;;
59167;SDS011;70412;55.048;73.268;2023-05-29T01:08:01;18.50;;;5.30;;
59167;SDS011;70412;55.048;73.268;2023-05-29T01:11:06;39.22;;;6.75;;
59167;SDS011;70412;55.048;73.268;2023-05-29T01:18:22;13.73;;;6.13;;
59167;SDS011;70412;55.048;73.268;2023-05-29T01:28:29;19.52;;;5.95;;
59167;SDS011;70412;55.048;73.268;2023-05-29T01:31:39;20.08;;;6.00;;
59167;SDS011;70412;55.048;73.268;2023-05-29T01:34:45;12.05;;;5.85;;
59167;SDS011;70412;55.048;73.268;2023-05-29T01:37:48;12.38;;;6.03;;
59167;SDS011;70412;55.048;73.268;2023-05-29T01:40:50;14.48;;;6.32;;
59167;SDS011;70412;55.048;73.268;2023-05-29T01:43:53;14.00;;;5.60;;
59167;SDS011;70412;55.048;73.268;2023-05-29T01:46:57;14.15;;;5.15;;
59167;SDS011;70412;55.048;73.268;2023-05-29T01:50:02;12.57;;;5.30;;
59167;SDS011;70412;55.048;73.268;2023-05-29T01:53:06;18.23;;;5.47;;
59167;SDS011;70412;55.048;73.268;2023-05-29T01:56:09;12.90;;;5.97;;
59167;SDS011;70412;55.048;73.268;2023-05-29T01:59:12;11.77;;;5.50;;
59167;SDS011;70412;55.048;73.268;2023-05-29T02:02:15;10.25;;;5.60;;
59167;SDS011;70412;55.048;73.268;2023-05-29T02:05:18;10.88;;;5.35;;
59167;SDS011;70412;55.048;73.268;2023-05-29T02:08:21;11.90;;;5.47;;
59167;SDS011;70412;55.048;73.268;2023-05-29T02:11:23;10.80;;;5.15;;
59167;SDS011;70412;55.048;73.268;2023-05-29T02:14:27;8.13;;;5.55;;
59167;SDS011;70412;55.048;73.268;2023-05-29T02:17:31;12.77;;;5.25;;
59167;SDS011;70412;55.048;73.268;2023-05-29T02:20:35;15.35;;;5.60;;
59167;SDS011;70412;55.048;73.268;2023-05-29T02:23:38;13.65;;;5.68;;
59167;SDS011;70412;55.048;73.268;2023-05-29T02:26:41;11.50;;;4.68;;
59167;SDS011;70412;55.048;73.268;2023-05-29T02:29:43;8.30;;;4.50;;
59167;SDS011;70412;55.048;73.268;2023-05-29T02:32:46;11.50;;;4.30;;
59167;SDS011;70412;55.048;73.268;2023-05-29T02:35:49;12.82;;;4.65;;
59167;SDS011;70412;55.048;73.268;2023-05-29T02:38:51;7.50;;;4.55;;
59167;SDS011;70412;55.048;73.268;2023-05-29T02:41:54;11.00;;;4.38;;
59167;SDS011;70412;55.048;73.268;2023-05-29T02:44:56;8.45;;;4.20;;
59167;SDS011;70412;55.048;73.268;2023-05-29T02:47:59;6.85;;;3.97;;
59167;SDS011;70412;55.048;73.268;2023-05-29T02:51:01;8.13;;;3.75;;
59167;SDS011;70412;55.048;73.268;2023-05-29T02:54:04;10.12;;;3.95;;
59167;SDS011;70412;55.048;73.268;2023-05-29T02:57:07;10.50;;;4.13;;
59167;SDS011;70412;55.048;73.268;2023-05-29T03:00:09;9.55;;;3.88;;
59167;SDS011;70412;55.048;73.268;2023-05-29T03:03:12;8.30;;;4.50;;
59167;SDS011;70412;55.048;73.268;2023-05-29T03:06:15;11.10;;;4.30;;
59167;SDS011;70412;55.048;73.268;2023-05-29T03:09:20;10.05;;;4.60;;
59167;SDS011;70412;55.048;73.268;2023-05-29T03:12:23;18.80;;;5.30;;
59167;SDS011;70412;55.048;73.268;2023-05-29T03:15:29;8.23;;;4.25;;
59167;SDS011;70412;55.048;73.268;2023-05-29T03:18:32;11.43;;;4.03;;
59167;SDS011;70412;55.048;73.268;2023-05-29T03:21:36;11.52;;;4.68;;
59167;SDS011;70412;55.048;73.268;2023-05-29T03:24:38;9.25;;;4.07;;
59167;SDS011;70412;55.048;73.268;2023-05-29T03:27:40;13.20;;;4.25;;
59167;SDS011;70412;55.048;73.268;2023-05-29T03:30:48;12.25;;;6.00;;
59167;SDS011;70412;55.048;73.268;2023-05-29T03:33:53;8.75;;;3.88;;
59167;SDS011;70412;55.048;73.268;2023-05-29T03:37:13;8.77;;;4.23;;
59167;SDS011;70412;55.048;73.268;2023-05-29T03:40:15;10.40;;;4.32;;
59167;SDS011;70412;55.048;73.268;2023-05-29T03:43:18;6.72;;;4.43;;
59167;SDS011;70412;55.048;73.268;2023-05-29T03:46:21;10.23;;;4.40;;
59167;SDS011;70412;55.048;73.268;2023-05-29T03:49:26;10.95;;;4.60;;
59167;SDS011;70412;55.048;73.268;2023-05-29T03:52:29;7.57;;;4.35;;
59167;SDS011;70412;55.048;73.268;2023-05-29T03:55:31;10.65;;;4.20;;
59167;SDS011;70412;55.048;73.268;2023-05-29T03:58:34;9.93;;;4.10;;
59167;SDS011;70412;55.048;73.268;2023-05-29T04:01:38;10.10;;;4.30;;
59167;SDS011;70412;55.048;73.268;2023-05-29T04:04:41;11.38;;;4.40;;
59167;SDS011;70412;55.048;73.268;2023-05-29T04:07:46;9.40;;;4.38;;
59167;SDS011;70412;55.048;73.268;2023-05-29T04:10:50;7.53;;;3.70;;
59167;SDS011;70412;55.048;73.268;2023-05-29T04:13:56;9.55;;;5.10;;
59167;SDS011;70412;55.048;73.268;2023-05-29T04:16:59;9.57;;;4.72;;
59167;SDS011;70412;55.048;73.268;2023-05-29T04:20:03;9.73;;;4.82;;
59167;SDS011;70412;55.048;73.268;2023-05-29T04:23:10;9.07;;;4.35;;
59167;SDS011;70412;55.048;73.268;2023-05-29T04:26:16;11.73;;;4.60;;
59167;SDS011;70412;55.048;73.268;2023-05-29T04:29:18;50.00;;;10.95;;
59167;SDS011;70412;55.048;73.268;2023-05-29T04:32:21;24.13;;;6.55;;
59167;SDS011;70412;55.048;73.268;2023-05-29T04:35:23;30.88;;;8.02;;
59167;SDS011;70412;55.048;73.268;2023-05-29T04:38:35;48.92;;;11.70;;
59167;SDS011;70412;55.048;73.268;2023-05-29T04:41:39;42.53;;;13.05;;
59167;SDS011;70412;55.048;73.268;2023-05-29T04:44:46;52.28;;;14.35;;
59167;SDS011;70412;55.048;73.268;2023-05-29T04:47:48;46.33;;;13.02;;
59167;SDS011;70412;55.048;73.268;2023-05-29T04:50:51;21.20;;;7.97;;
59167;SDS011;70412;55.048;73.268;2023-05-29T04:53:53;21.90;;;7.90;;
59167;SDS011;70412;55.048;73.268;2023-05-29T04:56:57;12.93;;;5.28;;
59167;SDS011;70412;55.048;73.268;2023-05-29T05:00:04;9.48;;;4.47;;
59167;SDS011;70412;55.048;73.268;2023-05-29T05:03:11;9.80;;;4.40;;
59167;SDS011;70412;55.048;73.268;2023-05-29T05:06:21;11.03;;;4.57;;
59167;SDS011;70412;55.048;73.268;2023-05-29T05:09:24;12.40;;;5.38;;
59167;SDS011;70412;55.048;73.268;2023-05-29T05:12:28;14.70;;;5.00;;
59167;SDS011;70412;55.048;73.268;2023-05-29T05:15:30;7.30;;;4.23;;
59167;SDS011;70412;55.048;73.268;2023-05-29T05:18:34;6.80;;;4.65;;
59167;SDS011;70412;55.048;73.268;2023-05-29T05:21:41;7.75;;;5.00;;
59167;SDS011;70412;55.048;73.268;2023-05-29T05:24:44;14.32;;;4.40;;
59167;SDS011;70412;55.048;73.268;2023-05-29T05:27:47;13.45;;;5.50;;
59167;SDS011;70412;55.048;73.268;2023-05-29T05:30:50;12.55;;;5.28;;
59167;SDS011;70412;55.048;73.268;2023-05-29T05:33:53;12.10;;;5.85;;
59167;SDS011;70412;55.048;73.268;2023-05-29T05:36:56;17.03;;;6.23;;
59167;SDS011;70412;55.048;73.268;2023-05-29T05:40:01;15.88;;;6.00;;
59167;SDS011;70412;55.048;73.268;2023-05-29T05:43:06;16.60;;;5.93;;
59167;SDS011;70412;55.048;73.268;2023-05-29T05:46:27;23.10;;;8.07;;
59167;SDS011;70412;55.048;73.268;2023-05-29T05:49:30;15.70;;;6.57;;
59167;SDS011;70412;55.048;73.268;2023-05-29T05:52:33;16.00;;;7.05;;
59167;SDS011;70412;55.048;73.268;2023-05-29T05:55:41;13.41;;;6.33;;
59167;SDS011;70412;55.048;73.268;2023-05-29T05:58:43;15.77;;;7.20;;
59167;SDS011;70412;55.048;73.268;2023-05-29T06:01:47;12.85;;;5.47;;
59167;SDS011;70412;55.048;73.268;2023-05-29T06:04:49;10.32;;;6.15;;
59167;SDS011;70412;55.048;73.268;2023-05-29T06:07:52;12.45;;;5.88;;
59167;SDS011;70412;55.048;73.268;2023-05-29T06:10:55;17.33;;;5.85;;
59167;SDS011;70412;55.048;73.268;2023-05-29T06:13:57;10.32;;;5.45;;
59167;SDS011;70412;55.048;73.268;2023-05-29T06:17:03;12.82;;;5.93;;
59167;SDS011;70412;55.048;73.268;2023-05-29T06:20:07;14.70;;;6.82;;
59167;SDS011;70412;55.048;73.268;2023-05-29T06:23:12;17.90;;;7.95;;
59167;SDS011;70412;55.048;73.268;2023-05-29T06:29:17;37.97;;;9.20;;
59167;SDS011;70412;55.048;73.268;2023-05-29T06:32:20;15.93;;;6.22;;
59167;SDS011;70412;55.048;73.268;2023-05-29T06:35:23;19.00;;;6.35;;
59167;SDS011;70412;55.048;73.268;2023-05-29T06:38:26;25.05;;;6.70;;
59167;SDS011;70412;55.048;73.268;2023-05-29T06:41:28;19.48;;;6.68;;
59167;SDS011;70412;55.048;73.268;2023-05-29T06:44:31;27.67;;;7.13;;
59167;SDS011;70412;55.048;73.268;2023-05-29T06:47:34;40.15;;;10.43;;
59167;SDS011;70412;55.048;73.268;2023-05-29T06:50:36;42.40;;;10.20;;
59167;SDS011;70412;55.048;73.268;2023-05-29T06:53:57;25.48;;;8.48;;
59167;SDS011;70412;55.048;73.268;2023-05-29T06:57:03;13.52;;;6.93;;
59167;SDS011;70412;55.048;73.268;2023-05-29T07:00:07;21.38;;;6.95;;
59167;SDS011;70412;55.048;73.268;2023-05-29T07:03:17;16.63;;;7.10;;
59167;SDS011;70412;55.048;73.268;2023-05-29T07:06:19;18.92;;;7.35;;
59167;SDS011;70412;55.048;73.268;2023-05-29T07:09:22;11.05;;;5.40;;
59167;SDS011;70412;55.048;73.268;2023-05-29T07:12:24;15.52;;;5.75;;
59167;SDS011;70412;55.048;73.268;2023-05-29T07:15:27;10.27;;;5.30;;
59167;SDS011;70412;55.048;73.268;2023-05-29T07:18:29;14.52;;;5.32;;
59167;SDS011;70412;55.048;73.268;2023-05-29T07:21:33;32.95;;;7.68;;
59167;SDS011;70412;55.048;73.268;2023-05-29T07:24:38;25.73;;;6.13;;
59167;SDS011;70412;55.048;73.268;2023-05-29T07:27:41;10.98;;;4.65;;
59167;SDS011;70412;55.048;73.268;2023-05-29T07:30:43;10.68;;;4.63;;
59167;SDS011;70412;55.048;73.268;2023-05-29T07:33:46;7.97;;;4.22;;
59167;SDS011;70412;55.048;73.268;2023-05-29T07:37:05;21.43;;;6.03;;
59167;SDS011;70412;55.048;73.268;2023-05-29T07:40:10;55.30;;;10.68;;
59167;SDS011;70412;55.048;73.268;2023-05-29T07:43:38;33.72;;;7.88;;
59167;SDS011;70412;55.048;73.268;2023-05-29T07:46:43;33.47;;;7.12;;
59167;SDS011;70412;55.048;73.268;2023-05-29T07:50:07;13.27;;;5.10;;
59167;SDS011;70412;55.048;73.268;2023-05-29T07:53:11;25.00;;;7.10;;
59167;SDS011;70412;55.048;73.268;2023-05-29T07:56:15;26.90;;;6.53;;
59167;SDS011;70412;55.048;73.268;2023-05-29T07:59:26;22.63;;;6.38;;
59167;SDS011;70412;55.048;73.268;2023-05-29T08:02:29;39.90;;;8.75;;
59167;SDS011;70412;55.048;73.268;2023-05-29T08:06:11;28.85;;;8.02;;
59167;SDS011;70412;55.048;73.268;2023-05-29T08:09:14;38.67;;;7.97;;
59167;SDS011;70412;55.048;73.268;2023-05-29T08:12:16;30.08;;;8.38;;
59167;SDS011;70412;55.048;73.268;2023-05-29T08:15:19;34.70;;;7.80;;
59167;SDS011;70412;55.048;73.268;2023-05-29T08:18:25;15.02;;;5.85;;
59167;SDS011;70412;55.048;73.268;2023-05-29T08:21:29;32.97;;;6.80;;
59167;SDS011;70412;55.048;73.268;2023-05-29T08:27:36;9.82;;;5.47;;
59167;SDS011;70412;55.048;73.268;2023-05-29T08:30:38;13.63;;;4.82;;
59167;SDS011;70412;55.048;73.268;2023-05-29T08:33:41;19.75;;;6.15;;
59167;SDS011;70412;55.048;73.268;2023-05-29T08:36:43;13.32;;;6.68;;
59167;SDS011;70412;55.048;73.268;2023-05-29T08:39:46;12.85;;;5.85;;
59167;SDS011;70412;55.048;73.268;2023-05-29T08:43:49;9.00;;;5.30;;
59167;SDS011;70412;55.048;73.268;2023-05-29T08:46:24;14.75;;;5.00;;
59167;SDS011;70412;55.048;73.268;2023-05-29T08:49:28;11.52;;;5.35;;
59167;SDS011;70412;55.048;73.268;2023-05-29T08:52:36;6.93;;;4.43;;
59167;SDS011;70412;55.048;73.268;2023-05-29T08:55:40;9.07;;;4.57;;
59167;SDS011;70412;55.048;73.268;2023-05-29T08:58:45;9.20;;;5.43;;
59167;SDS011;70412;55.048;73.268;2023-05-29T09:01:48;12.07;;;5.57;;
59167;SDS011;70412;55.048;73.268;2023-05-29T09:04:51;20.95;;;5.65;;
59167;SDS011;70412;55.048;73.268;2023-05-29T09:07:58;9.18;;;4.55;;
59167;SDS011;70412;55.048;73.268;2023-05-29T09:11:01;11.80;;;5.68;;
59167;SDS011;70412;55.048;73.268;2023-05-29T09:14:04;16.20;;;4.80;;
59167;SDS011;70412;55.048;73.268;2023-05-29T09:17:07;14.77;;;5.05;;
59167;SDS011;70412;55.048;73.268;2023-05-29T09:20:16;8.57;;;4.50;;
59167;SDS011;70412;55.048;73.268;2023-05-29T09:23:19;17.05;;;5.55;;
59167;SDS011;70412;55.048;73.268;2023-05-29T09:26:26;14.25;;;5.93;;
59167;SDS011;70412;55.048;73.268;2023-05-29T09:29:49;10.30;;;4.83;;
59167;SDS011;70412;55.048;73.268;2023-05-29T09:32:55;10.63;;;5.63;;
59167;SDS011;70412;55.048;73.268;2023-05-29T09:39:02;10.02;;;5.40;;
59167;SDS011;70412;55.048;73.268;2023-05-29T09:42:05;12.73;;;5.50;;
59167;SDS011;70412;55.048;73.268;2023-05-29T09:45:07;13.98;;;6.28;;
59167;SDS011;70412;55.048;73.268;2023-05-29T09:48:14;14.02;;;5.75;;
59167;SDS011;70412;55.048;73.268;2023-05-29T09:51:23;7.82;;;4.80;;
59167;SDS011;70412;55.048;73.268;2023-05-29T09:54:29;22.65;;;6.35;;
59167;SDS011;70412;55.048;73.268;2023-05-29T09:57:32;12.63;;;5.40;;
59167;SDS011;70412;55.048;73.268;2023-05-29T10:00:36;8.48;;;5.38;;
59167;SDS011;70412;55.048;73.268;2023-05-29T10:03:38;8.70;;;5.45;;
59167;SDS011;70412;55.048;73.268;2023-05-29T10:06:41;8.13;;;4.72;;
59167;SDS011;70412;55.048;73.268;2023-05-29T10:09:49;13.73;;;5.43;;
59167;SDS011;70412;55.048;73.268;2023-05-29T10:12:57;6.50;;;4.85;;
59167;SDS011;70412;55.048;73.268;2023-05-29T10:16:00;13.25;;;4.95;;
59167;SDS011;70412;55.048;73.268;2023-05-29T10:19:05;11.57;;;5.40;;
59167;SDS011;70412;55.048;73.268;2023-05-29T10:22:13;15.35;;;6.20;;
59167;SDS011;70412;55.048;73.268;2023-05-29T10:25:20;15.40;;;5.70;;
59167;SDS011;70412;55.048;73.268;2023-05-29T10:28:25;25.40;;;11.82;;
59167;SDS011;70412;55.048;73.268;2023-05-29T10:31:38;11.20;;;5.00;;
59167;SDS011;70412;55.048;73.268;2023-05-29T10:38:11;12.32;;;5.35;;
59167;SDS011;70412;55.048;73.268;2023-05-29T10:47:32;13.70;;;6.22;;
59167;SDS011;70412;55.048;73.268;2023-05-29T10:53:41;12.70;;;5.30;;
59167;SDS011;70412;55.048;73.268;2023-05-29T10:56:44;15.27;;;5.70;;
59167;SDS011;70412;55.048;73.268;2023-05-29T11:00:03;11.73;;;6.30;;
59167;SDS011;70412;55.048;73.268;2023-05-29T11:03:35;14.43;;;6.10;;
59167;SDS011;70412;55.048;73.268;2023-05-29T11:06:38;23.58;;;6.03;;
59167;SDS011;70412;55.048;73.268;2023-05-29T11:09:40;10.13;;;5.18;;
59167;SDS011;70412;55.048;73.268;2023-05-29T11:13:01;15.93;;;6.15;;
59167;SDS011;70412;55.048;73.268;2023-05-29T11:19:16;11.15;;;5.95;;
59167;SDS011;70412;55.048;73.268;2023-05-29T11:22:19;12.65;;;6.10;;
59167;SDS011;70412;55.048;73.268;2023-05-29T11:25:30;27.92;;;6.90;;
59167;SDS011;70412;55.048;73.268;2023-05-29T11:28:36;10.68;;;6.43;;
59167;SDS011;70412;55.048;73.268;2023-05-29T11:31:39;12.87;;;6.10;;
59167;SDS011;70412;55.048;73.268;2023-05-29T11:34:42;14.32;;;6.10;;
59167;SDS011;70412;55.048;73.268;2023-05-29T11:37:48;14.95;;;5.25;;
59167;SDS011;70412;55.048;73.268;2023-05-29T11:40:53;18.00;;;6.35;;
59167;SDS011;70412;55.048;73.268;2023-05-29T11:47:13;13.43;;;6.15;;
59167;SDS011;70412;55.048;73.268;2023-05-29T11:50:20;19.67;;;7.32;;
59167;SDS011;70412;55.048;73.268;2023-05-29T11:53:23;20.55;;;9.90;;
59167;SDS011;70412;55.048;73.268;2023-05-29T11:56:28;14.25;;;6.70;;
59167;SDS011;70412;55.048;73.268;2023-05-29T11:59:31;10.00;;;5.53;;
59167;SDS011;70412;55.048;73.268;2023-05-29T12:02:37;12.55;;;5.40;;
59167;SDS011;70412;55.048;73.268;2023-05-29T12:05:47;14.23;;;6.13;;
59167;SDS011;70412;55.048;73.268;2023-05-29T12:08:52;10.75;;;5.13;;
59167;SDS011;70412;55.048;73.268;2023-05-29T12:12:04;20.58;;;6.60;;
59167;SDS011;70412;55.048;73.268;2023-05-29T12:15:07;30.38;;;8.73;;
59167;SDS011;70412;55.048;73.268;2023-05-29T12:18:11;15.20;;;7.28;;
59167;SDS011;70412;55.048;73.268;2023-05-29T12:21:15;16.33;;;7.93;;
59167;SDS011;70412;55.048;73.268;2023-05-29T12:24:19;18.92;;;8.88;;
59167;SDS011;70412;55.048;73.268;2023-05-29T12:27:21;25.65;;;11.30;;
59167;SDS011;70412;55.048;73.268;2023-05-29T12:30:24;24.80;;;11.73;;
59167;SDS011;70412;55.048;73.268;2023-05-29T12:33:27;11.20;;;6.32;;
59167;SDS011;70412;55.048;73.268;2023-05-29T12:36:31;13.05;;;5.72;;
59167;SDS011;70412;55.048;73.268;2023-05-29T12:39:34;10.14;;;5.59;;
59167;SDS011;70412;55.048;73.268;2023-05-29T12:42:40;13.13;;;6.00;;
59167;SDS011;70412;55.048;73.268;2023-05-29T12:45:42;12.52;;;6.38;;
59167;SDS011;70412;55.048;73.268;2023-05-29T12:48:45;16.88;;;7.95;;
59167;SDS011;70412;55.048;73.268;2023-05-29T12:51:48;12.30;;;7.40;;
59167;SDS011;70412;55.048;73.268;2023-05-29T12:54:50;20.40;;;8.15;;
59167;SDS011;70412;55.048;73.268;2023-05-29T12:57:54;16.35;;;9.23;;
59167;SDS011;70412;55.048;73.268;2023-05-29T13:00:57;18.77;;;10.80;;
59167;SDS011;70412;55.048;73.268;2023-05-29T13:03:59;26.70;;;11.50;;
59167;SDS011;70412;55.048;73.268;2023-05-29T13:07:02;19.27;;;10.70;;
59167;SDS011;70412;55.048;73.268;2023-05-29T13:10:05;26.47;;;15.77;;
59167;SDS011;70412;55.048;73.268;2023-05-29T13:13:08;30.65;;;13.45;;
59167;SDS011;70412;55.048;73.268;2023-05-29T13:16:11;27.30;;;11.40;;
59167;SDS011;70412;55.048;73.268;2023-05-29T13:19:14;22.52;;;9.63;;
59167;SDS011;70412;55.048;73.268;2023-05-29T13:22:16;25.65;;;9.05;;
59167;SDS011;70412;55.048;73.268;2023-05-29T13:25:19;23.33;;;8.25;;
59167;SDS011;70412;55.048;73.268;2023-05-29T13:28:22;32.17;;;7.15;;
59167;SDS011;70412;55.048;73.268;2023-05-29T13:31:25;15.00;;;8.30;;
59167;SDS011;70412;55.048;73.268;2023-05-29T13:34:28;13.90;;;7.75;;
59167;SDS011;70412;55.048;73.268;2023-05-29T13:37:30;17.85;;;10.05;;
59167;SDS011;70412;55.048;73.268;2023-05-29T13:40:33;18.10;;;9.27;;
59167;SDS011;70412;55.048;73.268;2023-05-29T13:43:36;30.05;;;18.83;;
59167;SDS011;70412;55.048;73.268;2023-05-29T13:46:39;30.02;;;18.55;;
59167;SDS011;70412;55.048;73.268;2023-05-29T13:49:42;16.52;;;6.47;;
59167;SDS011;70412;55.048;73.268;2023-05-29T13:52:45;23.42;;;7.25;;
59167;SDS011;70412;55.048;73.268;2023-05-29T13:55:47;15.43;;;7.03;;
59167;SDS011;70412;55.048;73.268;2023-05-29T13:58:50;19.50;;;7.15;;
59167;SDS011;70412;55.048;73.268;2023-05-29T14:01:52;16.02;;;6.63;;
59167;SDS011;70412;55.048;73.268;2023-05-29T14:04:55;14.65;;;8.27;;
59167;SDS011;70412;55.048;73.268;2023-05-29T14:08:00;14.68;;;7.57;;
59167;SDS011;70412;55.048;73.268;2023-05-29T14:11:02;16.48;;;7.53;;
59167;SDS011;70412;55.048;73.268;2023-05-29T14:14:05;14.80;;;8.43;;
59167;SDS011;70412;55.048;73.268;2023-05-29T14:17:08;10.90;;;6.47;;
59167;SDS011;70412;55.048;73.268;2023-05-29T14:20:12;12.95;;;6.43;;
59167;SDS011;70412;55.048;73.268;2023-05-29T14:23:16;11.90;;;7.27;;
59167;SDS011;70412;55.048;73.268;2023-05-29T14:26:19;13.40;;;8.55;;
59167;SDS011;70412;55.048;73.268;2023-05-29T14:29:21;21.45;;;12.57;;
59167;SDS011;70412;55.048;73.268;2023-05-29T14:32:24;22.88;;;15.48;;
59167;SDS011;70412;55.048;73.268;2023-05-29T14:35:26;48.80;;;31.02;;
59167;SDS011;70412;55.048;73.268;2023-05-29T14:38:29;48.75;;;34.10;;
59167;SDS011;70412;55.048;73.268;2023-05-29T14:41:31;37.08;;;27.13;;
59167;SDS011;70412;55.048;73.268;2023-05-29T14:44:36;31.40;;;17.67;;
59167;SDS011;70412;55.048;73.268;2023-05-29T14:47:39;17.80;;;11.65;;
59167;SDS011;70412;55.048;73.268;2023-05-29T14:50:42;14.73;;;9.98;;
59167;SDS011;70412;55.048;73.268;2023-05-29T14:53:44;17.45;;;8.70;;
59167;SDS011;70412;55.048;73.268;2023-05-29T14:56:54;14.30;;;8.82;;
59167;SDS011;70412;55.048;73.268;2023-05-29T14:59:57;17.98;;;9.60;;
59167;SDS011;70412;55.048;73.268;2023-05-29T15:02:59;41.47;;;13.90;;
59167;SDS011;70412;55.048;73.268;2023-05-29T15:06:04;26.73;;;11.52;;
59167;SDS011;70412;55.048;73.268;2023-05-29T15:09:08;15.23;;;8.30;;
59167;SDS011;70412;55.048;73.268;2023-05-29T15:12:12;15.40;;;9.27;;
59167;SDS011;70412;55.048;73.268;2023-05-29T15:15:14;19.15;;;10.57;;
59167;SDS011;70412;55.048;73.268;2023-05-29T15:18:17;17.52;;;10.55;;
59167;SDS011;70412;55.048;73.268;2023-05-29T15:21:19;16.40;;;10.07;;
59167;SDS011;70412;55.048;73.268;2023-05-29T15:24:23;16.70;;;9.20;;
59167;SDS011;70412;55.048;73.268;2023-05-29T15:27:25;11.35;;;8.05;;
59167;SDS011;70412;55.048;73.268;2023-05-29T15:33:33;20.60;;;11.82;;
59167;SDS011;70412;55.048;73.268;2023-05-29T15:36:38;25.02;;;13.60;;
59167;SDS011;70412;55.048;73.268;2023-05-29T15:39:40;20.25;;;11.38;;
59167;SDS011;70412;55.048;73.268;2023-05-29T15:42:43;20.60;;;11.20;;
59167;SDS011;70412;55.048;73.268;2023-05-29T15:45:45;22.70;;;10.70;;
59167;SDS011;70412;55.048;73.268;2023-05-29T15:48:50;17.38;;;8.77;;
59167;SDS011;70412;55.048;73.268;2023-05-29T15:51:52;15.00;;;9.63;;
59167;SDS011;70412;55.048;73.268;2023-05-29T15:54:55;14.45;;;9.85;;
59167;SDS011;70412;55.048;73.268;2023-05-29T15:57:57;14.95;;;9.57;;
59167;SDS011;70412;55.048;73.268;2023-05-29T16:01:01;15.90;;;8.25;;
59167;SDS011;70412;55.048;73.268;2023-05-29T16:04:04;19.02;;;8.02;;
59167;SDS011;70412;55.048;73.268;2023-05-29T16:07:07;12.10;;;7.78;;
59167;SDS011;70412;55.048;73.268;2023-05-29T16:10:10;13.93;;;8.23;;
59167;SDS011;70412;55.048;73.268;2023-05-29T16:13:12;20.05;;;7.93;;
59167;SDS011;70412;55.048;73.268;2023-05-29T16:16:14;17.17;;;7.47;;
59167;SDS011;70412;55.048;73.268;2023-05-29T16:19:17;12.63;;;8.10;;
59167;SDS011;70412;55.048;73.268;2023-05-29T16:22:21;13.68;;;8.32;;
59167;SDS011;70412;55.048;73.268;2023-05-29T16:25:26;13.23;;;8.13;;
59167;SDS011;70412;55.048;73.268;2023-05-29T16:28:30;11.02;;;7.80;;
59167;SDS011;70412;55.048;73.268;2023-05-29T16:31:37;14.17;;;8.62;;
59167;SDS011;70412;55.048;73.268;2023-05-29T16:34:41;12.10;;;8.07;;
59167;SDS011;70412;55.048;73.268;2023-05-29T16:37:44;14.27;;;8.30;;
59167;SDS011;70412;55.048;73.268;2023-05-29T16:40:46;15.48;;;11.10;;
59167;SDS011;70412;55.048;73.268;2023-05-29T16:43:49;19.98;;;14.25;;
59167;SDS011;70412;55.048;73.268;2023-05-29T16:46:51;15.77;;;9.93;;
59167;SDS011;70412;55.048;73.268;2023-05-29T16:49:53;18.02;;;10.05;;
59167;SDS011;70412;55.048;73.268;2023-05-29T16:52:56;18.38;;;9.48;;
59167;SDS011;70412;55.048;73.268;2023-05-29T16:55:58;16.65;;;10.20;;
59167;SDS011;70412;55.048;73.268;2023-05-29T16:59:00;22.48;;;10.35;;
59167;SDS011;70412;55.048;73.268;2023-05-29T17:02:03;18.92;;;10.27;;
59167;SDS011;70412;55.048;73.268;2023-05-29T17:05:07;17.30;;;9.60;;
59167;SDS011;70412;55.048;73.268;2023-05-29T17:08:10;14.45;;;8.88;;
59167;SDS011;70412;55.048;73.268;2023-05-29T17:11:12;17.20;;;8.88;;
59167;SDS011;70412;55.048;73.268;2023-05-29T17:14:14;13.47;;;8.70;;
59167;SDS011;70412;55.048;73.268;2023-05-29T17:17:17;13.93;;;9.25;;
59167;SDS011;70412;55.048;73.268;2023-05-29T17:20:19;17.65;;;9.52;;
59167;SDS011;70412;55.048;73.268;2023-05-29T17:23:22;13.38;;;9.32;;
59167;SDS011;70412;55.048;73.268;2023-05-29T17:26:24;10.77;;;8.75;;
59167;SDS011;70412;55.048;73.268;2023-05-29T17:29:28;14.05;;;9.70;;
59167;SDS011;70412;55.048;73.268;2023-05-29T17:32:30;17.00;;;10.60;;
59167;SDS011;70412;55.048;73.268;2023-05-29T17:35:33;16.25;;;9.77;;
59167;SDS011;70412;55.048;73.268;2023-05-29T17:38:35;19.35;;;10.63;;
59167;SDS011;70412;55.048;73.268;2023-05-29T17:41:37;18.27;;;10.18;;
59167;SDS011;70412;55.048;73.268;2023-05-29T17:44:39;14.60;;;9.38;;
59167;SDS011;70412;55.048;73.268;2023-05-29T17:47:42;19.45;;;10.38;;
59167;SDS011;70412;55.048;73.268;2023-05-29T17:50:44;17.23;;;9.40;;
59167;SDS011;70412;55.048;73.268;2023-05-29T17:53:47;13.68;;;8.73;;
59167;SDS011;70412;55.048;73.268;2023-05-29T17:56:50;20.30;;;10.70;;
59167;SDS011;70412;55.048;73.268;2023-05-29T17:59:53;18.00;;;9.82;;
59167;SDS011;70412;55.048;73.268;2023-05-29T18:02:55;18.70;;;9.48;;
59167;SDS011;70412;55.048;73.268;2023-05-29T18:05:57;19.73;;;10.38;;
59167;SDS011;70412;55.048;73.268;2023-05-29T18:08:59;17.33;;;9.45;;
59167;SDS011;70412;55.048;73.268;2023-05-29T18:12:02;16.05;;;9.82;;
59167;SDS011;70412;55.048;73.268;2023-05-29T18:15:04;21.13;;;9.75;;
59167;SDS011;70412;55.048;73.268;2023-05-29T18:18:07;15.50;;;9.05;;
59167;SDS011;70412;55.048;73.268;2023-05-29T18:21:09;13.73;;;8.80;;
59167;SDS011;70412;55.048;73.268;2023-05-29T18:24:11;16.35;;;9.00;;
59167;SDS011;70412;55.048;73.268;2023-05-29T18:27:13;16.10;;;8.23;;
59167;SDS011;70412;55.048;73.268;2023-05-29T18:30:16;14.25;;;8.35;;
59167;SDS011;70412;55.048;73.268;2023-05-29T18:33:18;12.75;;;7.40;;
59167;SDS011;70412;55.048;73.268;2023-05-29T18:36:21;12.20;;;7.32;;
59167;SDS011;70412;55.048;73.268;2023-05-29T18:39:23;12.73;;;8.48;;